Terminal Aerodrome Forecast
Issued by NWS Spokane, WA

Home | Current Version | Previous Version | Text Only | Print | Product List | Glossary On
Versions: 1 2 3 4 5 6 7 8 9 10 11 12 13 14 15 16 17 18 19
000
FTUS46 KOTX 111306 AAA
TAFLWS
TAF AMD
KLWS 111306Z 1113/1212 VRB03KT P6SM VCSH SCT004 OVC050
      TEMPO 1113/1116 3/4SM BR BKN004
     FM111600 17006KT 4SM -SN BKN008 BKN015 OVC070
     FM112100 15005KT P6SM -SHSN BKN008 OVC012=

USA.gov is the U.S. government's official web portal to all federal, state and local government web resources and services.